createdAt,value
2023-05-14T00:01:12.123Z,57.27
2023-05-14T00:03:41.231Z,57.99
2023-05-14T00:06:09.082Z,57.33
2023-05-14T00:08:36.117Z,56.77
2023-05-14T00:11:03.103Z,56.59
2023-05-14T00:13:30.111Z,57.30
2023-05-14T00:15:57.128Z,57.59
2023-05-14T00:18:24.178Z,57.90
2023-05-14T00:20:54.813Z,57.87
2023-05-14T00:23:22.740Z,57.12
2023-05-14T00:25:49.952Z,57.53
2023-05-14T00:28:16.954Z,56.97
2023-05-14T00:30:44.521Z,56.46
2023-05-14T00:33:11.765Z,56.51
2023-05-14T00:35:38.855Z,55.75
2023-05-14T00:38:06.233Z,56.56
2023-05-14T00:40:33.244Z,56.35
2023-05-14T00:43:00.484Z,56.56
2023-05-14T00:45:27.665Z,55.94
2023-05-14T00:47:54.732Z,55.59
2023-05-14T00:50:22.450Z,54.61
2023-05-14T00:52:49.681Z,54.61
2023-05-14T00:55:16.796Z,56.58
2023-05-14T00:57:44.184Z,56.86
2023-05-14T01:00:11.780Z,56.29
2023-05-14T01:02:38.879Z,54.95
2023-05-14T01:05:06.244Z,55.12
2023-05-14T01:07:42.230Z,56.82
2023-05-14T01:10:14.181Z,57.01
2023-05-14T01:12:59.309Z,56.87
2023-05-14T01:15:28.887Z,56.57
2023-05-14T01:18:07.832Z,56.46
2023-05-14T01:20:34.886Z,55.55
2023-05-14T01:23:01.991Z,54.84
2023-05-14T01:25:30.543Z,54.28
2023-05-14T01:28:19.557Z,55.33
2023-05-14T01:30:52.794Z,56.02
2023-05-14T01:33:20.197Z,56.14
2023-05-14T01:35:47.645Z,57.10
2023-05-14T01:38:16.136Z,56.95
2023-05-14T01:40:43.185Z,56.05
2023-05-14T01:43:10.251Z,55.29
2023-05-14T01:45:37.355Z,57.18
2023-05-14T01:48:05.417Z,58.49
2023-05-14T01:50:32.456Z,57.10
2023-05-14T01:52:59.489Z,56.34
2023-05-14T01:55:27.807Z,58.27
2023-05-14T01:57:54.802Z,60.72
2023-05-14T02:00:23.806Z,59.40
2023-05-14T02:02:51.078Z,58.56
2023-05-14T02:05:18.226Z,59.15
2023-05-14T02:07:45.264Z,58.29
2023-05-14T02:10:12.265Z,60.96
2023-05-14T02:12:39.254Z,59.76
2023-05-14T02:15:06.754Z,58.67
2023-05-14T02:17:33.857Z,56.44
2023-05-14T02:20:00.898Z,56.16
2023-05-14T02:22:45.656Z,55.43
2023-05-14T02:25:12.756Z,54.95
2023-05-14T02:27:39.740Z,56.15
2023-05-14T02:30:07.319Z,56.58
2023-05-14T02:32:34.415Z,55.73
2023-05-14T02:35:01.976Z,55.01
2023-05-14T02:37:29.022Z,55.76
2023-05-14T02:39:55.969Z,54.42
2023-05-14T02:42:23.023Z,54.13
2023-05-14T02:44:50.108Z,54.19
2023-05-14T02:47:17.124Z,54.56
2023-05-14T02:49:44.193Z,54.21
2023-05-14T02:52:11.175Z,55.17
2023-05-14T02:54:38.160Z,54.64
2023-05-14T02:57:05.396Z,55.06
2023-05-14T02:59:32.503Z,54.54
2023-05-14T03:02:00.340Z,54.68
2023-05-14T03:04:27.870Z,54.51
2023-05-14T03:06:54.874Z,54.74
2023-05-14T03:09:21.808Z,56.44
2023-05-14T03:11:49.498Z,56.08
2023-05-14T03:14:16.545Z,56.06
2023-05-14T03:16:43.583Z,55.48
2023-05-14T03:19:10.940Z,55.70
2023-05-14T03:21:37.991Z,55.38
2023-05-14T03:24:05.272Z,54.84
2023-05-14T03:26:32.263Z,54.54
2023-05-14T03:28:59.248Z,55.44
2023-05-14T03:31:26.690Z,55.25
2023-05-14T03:33:56.641Z,59.05
2023-05-14T03:36:23.746Z,60.85
2023-05-14T03:38:50.753Z,59.69
2023-05-14T03:41:19.235Z,60.57
2023-05-14T03:43:46.216Z,60.65
2023-05-14T03:46:13.367Z,58.77
2023-05-14T03:48:41.156Z,62.27
2023-05-14T03:51:08.164Z,59.78
2023-05-14T03:53:36.532Z,59.01
2023-05-14T03:56:03.646Z,57.56
2023-05-14T03:58:31.094Z,56.32
2023-05-14T04:01:00.538Z,56.16
2023-05-14T04:03:27.757Z,56.67
2023-05-14T04:05:54.949Z,56.36
2023-05-14T04:08:22.041Z,56.96
2023-05-14T04:10:50.581Z,59.71
2023-05-14T04:13:17.820Z,61.02
2023-05-14T04:15:44.966Z,61.63
2023-05-14T04:18:11.990Z,58.88
2023-05-14T04:20:39.127Z,58.34
2023-05-14T04:23:06.471Z,59.66
2023-05-14T04:25:33.491Z,58.79
2023-05-14T04:28:00.585Z,59.00
2023-05-14T04:30:27.581Z,59.84
2023-05-14T04:32:54.631Z,59.69
2023-05-14T04:35:24.648Z,61.54
2023-05-14T04:37:52.400Z,60.32
2023-05-14T04:40:19.420Z,60.15
2023-05-14T04:42:46.441Z,57.96
2023-05-14T04:45:13.686Z,59.65
2023-05-14T04:47:41.744Z,59.63
2023-05-14T04:50:09.840Z,59.26
2023-05-14T04:52:38.427Z,58.34
2023-05-14T04:55:05.968Z,56.69
2023-05-14T04:57:32.945Z,56.21
2023-05-14T04:59:59.890Z,56.96
2023-05-14T05:02:27.482Z,56.55
2023-05-14T05:04:54.501Z,58.27
2023-05-14T05:07:21.587Z,59.41
2023-05-14T05:09:48.535Z,58.59
2023-05-14T05:12:15.546Z,59.01
2023-05-14T05:14:42.523Z,58.88
2023-05-14T05:17:09.504Z,58.37
2023-05-14T05:19:43.780Z,57.72
2023-05-14T05:22:11.809Z,60.38
2023-05-14T05:24:38.849Z,60.97
2023-05-14T05:27:06.197Z,58.57
2023-05-14T05:29:33.144Z,57.24
2023-05-14T05:32:00.157Z,59.82
2023-05-14T05:34:27.567Z,60.24
2023-05-14T05:36:54.576Z,62.00
2023-05-14T05:39:21.576Z,63.05
2023-05-14T05:41:48.584Z,60.84
2023-05-14T05:44:15.677Z,59.44
2023-05-14T05:46:42.688Z,57.79
2023-05-14T05:49:09.681Z,57.95
2023-05-14T05:51:36.652Z,56.86
2023-05-14T05:54:03.783Z,55.29
2023-05-14T05:56:30.889Z,55.68
2023-05-14T05:58:57.866Z,56.32
2023-05-14T06:01:24.889Z,54.86
2023-05-14T06:03:51.863Z,54.54
2023-05-14T06:06:18.833Z,58.33
2023-05-14T06:08:45.815Z,58.62
2023-05-14T06:11:12.948Z,59.48
2023-05-14T06:13:39.931Z,59.25
2023-05-14T06:16:07.086Z,60.44
2023-05-14T06:18:34.198Z,60.14
2023-05-14T06:21:01.203Z,58.16
2023-05-14T06:23:28.210Z,56.01
2023-05-14T06:25:55.150Z,60.97
2023-05-14T06:28:22.209Z,62.23
2023-05-14T06:30:54.045Z,60.11
2023-05-14T06:33:23.527Z,62.19
2023-05-14T06:35:51.242Z,63.72
2023-05-14T06:38:18.176Z,61.87
2023-05-14T06:40:45.623Z,61.00
2023-05-14T06:43:12.563Z,61.19
2023-05-14T06:45:39.538Z,59.55
2023-05-14T06:48:06.817Z,57.33
2023-05-14T06:50:33.894Z,56.80
2023-05-14T06:53:00.880Z,57.72
2023-05-14T06:55:28.077Z,60.41
2023-05-14T06:57:55.764Z,60.02
2023-05-14T07:00:23.355Z,59.52
2023-05-14T07:02:52.164Z,57.67
2023-05-14T07:05:19.368Z,59.39
2023-05-14T07:07:46.327Z,61.25
2023-05-14T07:10:13.606Z,58.22
2023-05-14T07:12:40.618Z,57.65
2023-05-14T07:15:08.314Z,57.62
2023-05-14T07:17:35.559Z,60.82
2023-05-14T07:20:02.934Z,60.37
2023-05-14T07:22:31.121Z,62.07
2023-05-14T07:24:58.105Z,62.39
2023-05-14T07:27:25.084Z,65.55
2023-05-14T07:29:52.119Z,62.13
2023-05-14T07:32:19.203Z,61.83
2023-05-14T07:34:46.450Z,60.87
2023-05-14T07:37:13.441Z,60.17
2023-05-14T07:39:41.773Z,62.55
2023-05-14T07:42:09.174Z,60.67
2023-05-14T07:44:36.157Z,61.67
2023-05-14T07:47:04.330Z,63.09
2023-05-14T07:49:31.416Z,60.14
2023-05-14T07:51:58.727Z,58.79
2023-05-14T07:54:25.730Z,56.24
2023-05-14T07:56:52.812Z,57.08
2023-05-14T07:59:19.786Z,57.72
2023-05-14T08:01:47.050Z,60.63
2023-05-14T08:04:16.416Z,62.29
2023-05-14T08:06:43.684Z,62.29
2023-05-14T08:09:10.606Z,62.15
2023-05-14T08:11:37.741Z,62.46
2023-05-14T08:14:04.751Z,58.30
2023-05-14T08:16:31.742Z,54.73
2023-05-14T08:18:58.876Z,56.86
2023-05-14T08:21:26.017Z,53.96
2023-05-14T08:23:52.965Z,56.22
2023-05-14T08:26:19.996Z,58.73
2023-05-14T08:28:47.061Z,56.75
2023-05-14T08:31:14.870Z,56.32
2023-05-14T08:33:42.101Z,58.67
2023-05-14T08:36:09.698Z,58.79
2023-05-14T08:38:36.846Z,57.16
2023-05-14T08:41:04.634Z,58.20
2023-05-14T08:43:43.733Z,58.54
2023-05-14T08:46:11.039Z,59.08
2023-05-14T08:48:38.846Z,59.33
2023-05-14T08:51:06.378Z,59.24
2023-05-14T08:53:33.506Z,59.07
2023-05-14T08:56:01.456Z,57.27
2023-05-14T08:58:28.898Z,54.99
2023-05-14T09:00:56.263Z,51.94
2023-05-14T09:03:23.346Z,52.96
2023-05-14T09:05:51.612Z,53.92
2023-05-14T09:08:18.938Z,54.37
2023-05-14T09:10:46.209Z,55.83
2023-05-14T09:13:13.261Z,58.26
2023-05-14T09:15:41.460Z,58.16
2023-05-14T09:18:08.510Z,58.35
2023-05-14T09:20:35.564Z,59.17
2023-05-14T09:23:02.749Z,59.42
2023-05-14T09:25:32.904Z,58.18
2023-05-14T09:28:00.007Z,57.15
2023-05-14T09:30:30.159Z,54.89
2023-05-14T09:32:57.188Z,56.24
2023-05-14T09:35:24.604Z,55.52
2023-05-14T09:37:52.884Z,54.54
2023-05-14T09:40:21.119Z,52.18
2023-05-14T09:42:49.185Z,53.01
2023-05-14T09:45:16.634Z,54.58
2023-05-14T09:47:45.005Z,54.90
2023-05-14T09:50:12.645Z,55.44
2023-05-14T09:52:39.819Z,52.67
2023-05-14T09:55:07.303Z,52.03
2023-05-14T09:57:34.675Z,54.65
2023-05-14T10:00:01.936Z,53.64
2023-05-14T10:02:40.551Z,50.65
2023-05-14T10:05:08.038Z,50.66
2023-05-14T10:07:44.457Z,53.06
2023-05-14T10:10:17.137Z,52.67
2023-05-14T10:12:46.485Z,51.22
2023-05-14T10:15:17.838Z,49.83
2023-05-14T10:17:46.943Z,48.75
2023-05-14T10:20:16.211Z,48.75
2023-05-14T10:22:43.154Z,49.84
2023-05-14T10:25:10.156Z,47.95
2023-05-14T10:27:37.301Z,49.82
2023-05-14T10:30:06.884Z,49.07
2023-05-14T10:32:33.923Z,48.00
2023-05-14T10:35:01.635Z,46.70
2023-05-14T10:37:28.912Z,48.22
2023-05-14T10:40:00.321Z,47.02
2023-05-14T10:42:29.448Z,46.27
2023-05-14T10:44:58.881Z,46.23
2023-05-14T10:47:26.511Z,45.40
2023-05-14T10:49:55.050Z,50.67
2023-05-14T10:52:22.454Z,48.32
2023-05-14T10:54:53.461Z,47.60
2023-05-14T10:57:21.385Z,49.54
2023-05-14T10:59:55.728Z,51.70
2023-05-14T11:02:33.949Z,52.49
2023-05-14T11:05:05.868Z,50.54
2023-05-14T11:07:34.395Z,50.77
2023-05-14T11:10:08.721Z,50.07
2023-05-14T11:12:37.084Z,47.16
2023-05-14T11:15:06.180Z,45.33
2023-05-14T11:17:33.270Z,47.61
2023-05-14T11:20:00.370Z,46.83
2023-05-14T11:22:27.414Z,47.37
2023-05-14T11:24:54.773Z,47.55
2023-05-14T11:27:21.901Z,45.45
2023-05-14T11:29:49.073Z,45.53
2023-05-14T11:32:16.720Z,48.99
2023-05-14T11:34:47.287Z,47.89
2023-05-14T11:37:15.739Z,46.81
2023-05-14T11:39:53.608Z,46.00
2023-05-14T11:42:21.040Z,44.53
2023-05-14T11:44:49.147Z,46.45
2023-05-14T11:47:17.189Z,48.17
2023-05-14T11:49:44.222Z,48.11
2023-05-14T11:52:13.069Z,45.10
2023-05-14T11:54:40.550Z,43.62
2023-05-14T11:57:09.695Z,42.46
2023-05-14T11:59:36.749Z,43.11
2023-05-14T12:02:05.178Z,43.14
2023-05-14T12:04:32.492Z,42.43
2023-05-14T12:07:00.370Z,41.88
2023-05-14T12:09:27.331Z,43.24
2023-05-14T12:11:54.280Z,45.17
2023-05-14T12:14:22.767Z,46.17
2023-05-14T12:16:50.542Z,45.75
2023-05-14T12:19:19.377Z,45.65
2023-05-14T12:21:48.350Z,43.98
2023-05-14T12:24:17.069Z,44.76
2023-05-14T12:26:47.721Z,42.91
2023-05-14T12:29:15.900Z,45.12
2023-05-14T12:31:49.034Z,43.16
2023-05-14T12:34:16.519Z,45.02
2023-05-14T12:36:43.818Z,43.26
2023-05-14T12:39:11.062Z,42.03
2023-05-14T12:41:38.044Z,42.10
2023-05-14T12:44:05.459Z,43.14
2023-05-14T12:46:33.091Z,45.16
2023-05-14T12:49:00.219Z,45.82
2023-05-14T12:51:27.319Z,43.92
2023-05-14T12:53:54.463Z,42.96
2023-05-14T12:56:22.112Z,41.67
2023-05-14T12:58:49.162Z,42.11
2023-05-14T13:01:16.256Z,42.65
2023-05-14T13:03:43.302Z,43.60
2023-05-14T13:06:10.342Z,43.31
2023-05-14T13:08:37.363Z,43.16
2023-05-14T13:11:04.313Z,40.95
2023-05-14T13:13:31.324Z,40.28
2023-05-14T13:15:58.359Z,39.23
2023-05-14T13:18:26.698Z,39.83
2023-05-14T13:20:54.020Z,37.90
2023-05-14T13:23:21.068Z,37.00
2023-05-14T13:25:49.942Z,35.83
2023-05-14T13:28:17.186Z,35.37
2023-05-14T13:31:03.132Z,34.82
2023-05-14T13:33:30.822Z,36.02
2023-05-14T13:35:57.768Z,36.55
2023-05-14T13:38:24.768Z,36.86
2023-05-14T13:40:51.708Z,37.38
2023-05-14T13:43:20.029Z,35.37
2023-05-14T13:45:47.133Z,36.92
2023-05-14T13:48:14.193Z,37.14
2023-05-14T13:50:41.382Z,38.52
2023-05-14T13:53:08.441Z,39.74
2023-05-14T13:55:35.505Z,40.12
2023-05-14T13:58:02.615Z,40.92
2023-05-14T14:00:29.665Z,43.15
2023-05-14T14:02:56.714Z,43.59
2023-05-14T14:05:25.866Z,43.99
2023-05-14T14:08:00.637Z,42.47
2023-05-14T14:10:35.613Z,41.45
2023-05-14T14:13:02.593Z,41.72
2023-05-14T14:15:29.570Z,42.67
2023-05-14T14:17:56.634Z,42.07
2023-05-14T14:20:23.686Z,41.82
2023-05-14T14:22:50.806Z,41.83
2023-05-14T14:25:17.909Z,44.95
2023-05-14T14:27:47.400Z,44.72
2023-05-14T14:30:17.561Z,45.71
2023-05-14T14:32:48.277Z,46.44
2023-05-14T14:35:15.546Z,46.40
2023-05-14T14:37:43.552Z,46.48
2023-05-14T14:40:11.018Z,44.73
2023-05-14T14:42:38.454Z,46.01
2023-05-14T14:45:06.090Z,48.21
2023-05-14T14:47:33.244Z,49.76
2023-05-14T14:50:00.246Z,49.11
2023-05-14T14:52:27.445Z,51.47
2023-05-14T14:54:55.574Z,51.53
2023-05-14T14:57:22.618Z,50.75
2023-05-14T14:59:49.754Z,51.02
2023-05-14T15:02:16.761Z,51.49
2023-05-14T15:04:43.827Z,49.17
2023-05-14T15:07:11.257Z,49.67
2023-05-14T15:09:38.666Z,54.10
2023-05-14T15:12:06.286Z,55.30
2023-05-14T15:14:33.284Z,57.13
2023-05-14T15:17:00.427Z,57.01
2023-05-14T15:19:29.117Z,60.46
2023-05-14T15:21:56.168Z,61.68
2023-05-14T15:24:25.105Z,61.83
2023-05-14T15:26:53.540Z,60.98
2023-05-14T15:29:20.914Z,61.10
2023-05-14T15:31:48.128Z,59.10
2023-05-14T15:34:15.180Z,63.52
2023-05-14T15:36:42.145Z,62.89
2023-05-14T15:39:10.528Z,64.99
2023-05-14T15:41:38.060Z,64.16
2023-05-14T15:44:05.704Z,61.90
2023-05-14T15:46:32.854Z,62.82
2023-05-14T15:48:59.863Z,61.97
2023-05-14T15:51:26.880Z,61.54
2023-05-14T15:53:54.645Z,61.32
2023-05-14T15:56:22.630Z,58.01
2023-05-14T15:58:49.980Z,58.23
2023-05-14T16:01:17.671Z,56.22
2023-05-14T16:03:44.889Z,54.46
2023-05-14T16:06:11.960Z,53.77
2023-05-14T16:08:38.956Z,53.87
2023-05-14T16:11:06.504Z,52.98
2023-05-14T16:13:34.000Z,52.01
2023-05-14T16:16:01.486Z,54.30
2023-05-14T16:18:28.619Z,56.88
2023-05-14T16:20:56.321Z,57.96
2023-05-14T16:23:23.370Z,58.32
2023-05-14T16:25:51.467Z,58.29
2023-05-14T16:28:18.449Z,55.89
2023-05-14T16:30:45.509Z,53.29
2023-05-14T16:33:12.581Z,51.58
2023-05-14T16:35:39.576Z,50.20
2023-05-14T16:38:06.660Z,51.77
2023-05-14T16:40:33.732Z,54.95
2023-05-14T16:43:00.923Z,57.02
2023-05-14T16:45:28.110Z,56.83
2023-05-14T16:47:55.479Z,56.64
2023-05-14T16:50:23.938Z,57.94
2023-05-14T16:52:51.794Z,57.18
2023-05-14T16:55:19.992Z,57.12
2023-05-14T16:57:47.338Z,58.93
2023-05-14T17:00:15.518Z,56.39
2023-05-14T17:02:43.432Z,53.42
2023-05-14T17:05:10.870Z,57.32
2023-05-14T17:07:39.527Z,58.06
2023-05-14T17:10:07.534Z,58.87
2023-05-14T17:12:34.896Z,58.62
2023-05-14T17:15:03.766Z,59.94
2023-05-14T17:17:33.819Z,60.90
2023-05-14T17:20:01.095Z,62.76
2023-05-14T17:22:28.217Z,60.79
2023-05-14T17:24:56.324Z,61.55
2023-05-14T17:27:23.414Z,62.60
2023-05-14T17:29:54.369Z,61.17
2023-05-14T17:32:21.784Z,62.05
2023-05-14T17:34:48.855Z,60.07
2023-05-14T17:37:16.228Z,58.50
2023-05-14T17:39:43.328Z,55.34
2023-05-14T17:42:10.435Z,52.84
2023-05-14T17:44:37.486Z,51.91
2023-05-14T17:47:04.965Z,53.13
2023-05-14T17:49:32.024Z,54.07
2023-05-14T17:51:59.059Z,53.65
2023-05-14T17:54:26.078Z,52.14
2023-05-14T17:56:53.530Z,51.17
2023-05-14T17:59:21.952Z,50.77
2023-05-14T18:01:50.768Z,50.79
2023-05-14T18:04:17.798Z,49.81
2023-05-14T18:06:45.981Z,51.10
2023-05-14T18:09:13.252Z,49.75
2023-05-14T18:11:40.298Z,52.79
2023-05-14T18:14:07.336Z,51.55
2023-05-14T18:16:34.413Z,53.75
2023-05-14T18:19:01.516Z,54.29
2023-05-14T18:21:28.669Z,54.55
2023-05-14T18:23:56.112Z,54.53
2023-05-14T18:26:23.250Z,54.28
2023-05-14T18:28:50.346Z,55.32
2023-05-14T18:31:17.563Z,53.00
2023-05-14T18:33:44.733Z,54.13
2023-05-14T18:36:11.821Z,54.68
2023-05-14T18:38:38.970Z,57.71
2023-05-14T18:41:06.115Z,58.20
2023-05-14T18:43:33.205Z,56.98
2023-05-14T18:46:00.697Z,55.91
2023-05-14T18:48:27.909Z,56.03
2023-05-14T18:50:55.033Z,56.65
2023-05-14T18:53:22.271Z,58.74
2023-05-14T18:55:49.450Z,56.56
2023-05-14T18:58:17.777Z,55.77
2023-05-14T19:00:44.929Z,53.72
2023-05-14T19:03:12.214Z,53.69
2023-05-14T19:05:39.576Z,52.82
2023-05-14T19:08:06.740Z,52.12
2023-05-14T19:10:34.797Z,51.34
2023-05-14T19:13:02.207Z,51.17
2023-05-14T19:15:29.373Z,51.73
2023-05-14T19:17:57.036Z,52.33
2023-05-14T19:20:24.285Z,53.18
2023-05-14T19:22:51.404Z,53.45
2023-05-14T19:25:18.607Z,52.92
2023-05-14T19:27:47.699Z,52.91
2023-05-14T19:30:15.005Z,52.64
2023-05-14T19:32:42.147Z,52.43
2023-05-14T19:35:09.536Z,51.88
2023-05-14T19:37:36.601Z,52.09
2023-05-14T19:40:04.017Z,51.44
2023-05-14T19:42:31.926Z,51.72
2023-05-14T19:44:59.087Z,51.68
2023-05-14T19:47:26.243Z,52.17
2023-05-14T19:49:53.351Z,52.22
2023-05-14T19:52:20.553Z,52.28
2023-05-14T19:54:47.653Z,52.42
2023-05-14T19:57:14.721Z,52.81
2023-05-14T19:59:41.918Z,52.70
2023-05-14T20:02:09.244Z,53.46
2023-05-14T20:04:40.061Z,54.53
2023-05-14T20:07:07.343Z,55.21
2023-05-14T20:09:34.439Z,55.24
2023-05-14T20:12:01.544Z,54.33
2023-05-14T20:14:28.693Z,54.15
2023-05-14T20:16:58.050Z,54.17
2023-05-14T20:19:26.692Z,53.99
2023-05-14T20:21:53.924Z,54.66
2023-05-14T20:24:21.076Z,53.97
2023-05-14T20:26:48.215Z,53.26
2023-05-14T20:29:15.264Z,53.27
2023-05-14T20:31:42.431Z,52.93
2023-05-14T20:34:09.616Z,53.94
2023-05-14T20:36:37.529Z,53.87
2023-05-14T20:39:06.280Z,53.58
2023-05-14T20:41:33.456Z,53.09
2023-05-14T20:44:00.633Z,53.07
2023-05-14T20:46:27.803Z,54.07
2023-05-14T20:48:55.960Z,54.16
2023-05-14T20:51:23.065Z,54.78
2023-05-14T20:53:50.110Z,55.03
2023-05-14T20:56:17.157Z,54.76
2023-05-14T20:58:44.133Z,54.53
2023-05-14T21:01:11.111Z,54.27
2023-05-14T21:03:38.217Z,53.88
2023-05-14T21:06:05.423Z,54.20
2023-05-14T21:08:33.070Z,53.41
2023-05-14T21:11:00.088Z,53.89
2023-05-14T21:13:27.068Z,54.43
2023-05-14T21:15:54.063Z,55.77
2023-05-14T21:18:21.194Z,54.99
2023-05-14T21:20:48.227Z,54.93
2023-05-14T21:23:15.778Z,54.63
2023-05-14T21:25:42.811Z,53.52
2023-05-14T21:28:09.754Z,53.67
2023-05-14T21:30:36.757Z,53.35
2023-05-14T21:33:03.859Z,53.81
2023-05-14T21:35:30.991Z,53.44
2023-05-14T21:37:58.070Z,52.82
2023-05-14T21:40:25.052Z,53.10
2023-05-14T21:42:52.076Z,52.99
2023-05-14T21:45:19.851Z,53.04
2023-05-14T21:47:47.780Z,52.55
2023-05-14T21:50:14.875Z,51.94
2023-05-14T21:52:42.152Z,51.96
2023-05-14T21:55:09.599Z,52.63
2023-05-14T21:57:36.545Z,53.19
2023-05-14T22:00:06.529Z,53.37
2023-05-14T22:02:34.294Z,53.87
2023-05-14T22:05:02.335Z,53.53
2023-05-14T22:07:30.036Z,53.05
2023-05-14T22:09:57.018Z,53.66
2023-05-14T22:12:24.133Z,53.46
2023-05-14T22:14:51.162Z,53.72
2023-05-14T22:17:18.131Z,53.63
2023-05-14T22:19:45.373Z,52.54
2023-05-14T22:22:12.346Z,53.57
2023-05-14T22:24:39.326Z,54.28
2023-05-14T22:27:06.719Z,54.41
2023-05-14T22:29:33.719Z,54.59
2023-05-14T22:32:01.114Z,53.39
2023-05-14T22:34:28.221Z,53.26
2023-05-14T22:36:55.243Z,54.17
2023-05-14T22:39:22.286Z,55.12
2023-05-14T22:41:55.050Z,54.73
2023-05-14T22:44:22.728Z,54.99
2023-05-14T22:46:49.805Z,54.51
2023-05-14T22:49:16.917Z,54.57
2023-05-14T22:51:43.854Z,54.76
2023-05-14T22:54:11.065Z,54.64
2023-05-14T22:56:38.253Z,55.08
2023-05-14T22:59:05.226Z,54.47
2023-05-14T23:01:32.295Z,54.62
2023-05-14T23:03:59.315Z,54.93
2023-05-14T23:06:26.424Z,56.09
2023-05-14T23:08:53.470Z,56.03
2023-05-14T23:11:21.499Z,55.61
2023-05-14T23:13:48.606Z,55.43
2023-05-14T23:16:15.589Z,57.39
2023-05-14T23:18:43.118Z,57.50
2023-05-14T23:21:10.240Z,55.86
2023-05-14T23:23:37.323Z,55.01
2023-05-14T23:26:04.524Z,55.35
2023-05-14T23:28:31.657Z,55.16
2023-05-14T23:30:58.707Z,55.09
2023-05-14T23:33:25.859Z,54.83
2023-05-14T23:35:53.040Z,54.87
2023-05-14T23:38:20.115Z,54.74
2023-05-14T23:40:47.121Z,54.16
2023-05-14T23:43:14.980Z,53.98
2023-05-14T23:45:41.960Z,54.41
2023-05-14T23:48:09.025Z,55.11
2023-05-14T23:50:35.997Z,55.55
2023-05-14T23:53:03.004Z,55.92
2023-05-14T23:55:29.985Z,55.08
2023-05-14T23:57:56.952Z,54.93
